Time;durP1;ratioP1;P1;durP2;ratioP2;P2;SDS_P1;SDS_P2;PMS_P1;PMS_P2;Temp;Humidity;BMP_temperature;BMP_pressure;BME280_temperature;BME280_humidity;BME280_pressure;Samples;Min_cycle;Max_cycle;Signal;HPM_P1;HPM_P2
2022/01/25 05:05:18;;;;;;;28.77;15.63;;;-3.90;99.90;;;;;;4994126;28;94810;-75
2022/01/25 05:08:49;;;;;;;31.85;16.17;;;-3.90;99.90;;;;;;4994217;28;94696;-77
2022/01/25 05:10:48;;;;;;;31.80;17.65;;;-3.70;99.90;;;;;;4983390;28;94404;-78
2022/01/25 05:13:37;;;;;;;32.28;17.40;;;-3.70;99.90;;;;;;4973271;28;96278;-77
2022/01/25 05:16:07;;;;;;;30.33;16.23;;;-3.70;99.90;;;;;;5027805;22;97318;-74
2022/01/25 05:18:48;;;;;;;32.90;17.85;;;-3.70;99.90;;;;;;4993629;28;94441;-74
2022/01/25 05:23:58;;;;;;;35.47;18.75;;;-3.80;99.90;;;;;;5013337;28;94441;-75
2022/01/25 05:26:25;;;;;;;33.58;17.95;;;-3.70;99.90;;;;;;5012522;28;94854;-74
2022/01/25 05:28:51;;;;;;;34.33;19.63;;;-3.60;99.90;;;;;;5013240;28;94417;-74
2022/01/25 05:31:16;;;;;;;32.00;19.23;;;-3.50;99.90;;;;;;5007397;28;93697;-75
2022/01/25 05:33:42;;;;;;;36.03;20.33;;;-3.40;99.90;;;;;;4992932;28;94506;-74
2022/01/25 05:36:08;;;;;;;37.00;20.20;;;-3.40;99.90;;;;;;4993109;28;94973;-74
2022/01/25 05:38:33;;;;;;;37.20;21.23;;;-3.40;99.90;;;;;;4993208;28;95983;-75
2022/01/25 05:41:01;;;;;;;37.28;20.08;;;-3.50;99.90;;;;;;4996933;28;94789;-74
2022/01/25 05:46:16;;;;;;;37.38;21.27;;;-3.60;99.90;;;;;;5017060;28;94482;-74
2022/01/25 05:48:42;;;;;;;36.28;21.02;;;-3.70;99.90;;;;;;4998841;28;94590;-74
2022/01/25 05:51:08;;;;;;;36.17;20.67;;;-3.70;99.90;;;;;;5011682;28;94500;-74
2022/01/25 05:53:34;;;;;;;38.22;21.13;;;-3.60;99.90;;;;;;4978294;28;97747;-74
2022/01/25 05:56:00;;;;;;;37.33;20.55;;;-3.50;99.90;;;;;;4996311;28;94916;-74
2022/01/25 05:58:26;;;;;;;39.72;21.13;;;-3.40;99.90;;;;;;4996579;28;94468;-74
2022/01/25 06:00:51;;;;;;;37.17;20.30;;;-3.30;99.90;;;;;;4998128;28;94676;-75
2022/01/25 06:03:17;;;;;;;38.25;20.27;;;-3.30;99.90;;;;;;5015205;28;96639;-75
2022/01/25 06:05:43;;;;;;;38.83;20.58;;;-3.50;99.90;;;;;;5015991;28;95131;-74
2022/01/25 06:08:09;;;;;;;36.88;20.45;;;-3.50;99.90;;;;;;4998255;28;94510;-75
2022/01/25 06:10:35;;;;;;;39.65;21.08;;;-3.50;99.90;;;;;;5016235;28;94498;-74
2022/01/25 06:13:00;;;;;;;45.88;21.73;;;-3.40;99.90;;;;;;4995950;28;94650;-77
2022/01/25 06:15:26;;;;;;;43.40;21.63;;;-3.30;99.90;;;;;;4995774;28;95648;-74
2022/01/25 06:17:52;;;;;;;37.25;20.35;;;-3.10;99.90;;;;;;4996266;28;94395;-74
2022/01/25 06:20:18;;;;;;;42.33;21.42;;;-3.20;99.90;;;;;;4994353;28;94158;-74
2022/01/25 06:22:44;;;;;;;39.10;20.60;;;-3.10;99.90;;;;;;5004654;28;96638;-75
2022/01/25 06:25:11;;;;;;;39.72;21.38;;;-3.00;99.90;;;;;;4995681;28;94562;-74
2022/01/25 06:27:42;;;;;;;43.40;21.60;;;-3.00;99.90;;;;;;4991542;28;95580;-75
2022/01/25 06:30:09;;;;;;;45.30;22.60;;;-3.00;99.90;;;;;;4987140;28;94551;-74
2022/01/25 06:32:35;;;;;;;43.47;21.85;;;-2.90;99.90;;;;;;4969894;28;97300;-76
2022/01/25 06:35:02;;;;;;;42.97;22.55;;;-2.90;99.90;;;;;;4985225;28;94793;-76
2022/01/25 06:37:27;;;;;;;40.35;22.05;;;-2.90;99.90;;;;;;4987866;28;95352;-76
2022/01/25 06:39:54;;;;;;;46.97;22.60;;;-2.90;99.90;;;;;;4983811;28;94765;-76
2022/01/25 06:42:20;;;;;;;51.35;22.92;;;-2.90;99.90;;;;;;4987936;28;95093;-76
2022/01/25 06:44:46;;;;;;;51.50;23.50;;;-2.80;99.90;;;;;;4985296;28;94792;-77
2022/01/25 06:47:12;;;;;;;43.10;21.67;;;-2.70;99.90;;;;;;4970724;28;94508;-77
2022/01/25 06:49:38;;;;;;;59.15;26.95;;;-2.60;99.90;;;;;;4984368;28;94413;-76
2022/01/25 06:52:03;;;;;;;71.43;29.20;;;-2.50;99.90;;;;;;4976040;28;98351;-76
2022/01/25 06:54:29;;;;;;;82.97;30.45;;;-2.40;99.90;;;;;;5004422;28;98841;-81
2022/01/25 06:56:54;;;;;;;82.95;31.05;;;-2.20;99.90;;;;;;4996228;28;94499;-76
2022/01/25 06:59:20;;;;;;;79.68;32.03;;;-2.10;99.90;;;;;;4988245;28;95897;-75
2022/01/25 07:01:46;;;;;;;79.00;30.00;;;-2.00;99.90;;;;;;4980673;28;94995;-74
2022/01/25 07:04:11;;;;;;;84.20;33.13;;;-2.00;99.90;;;;;;4957249;28;97179;-75
2022/01/25 07:06:37;;;;;;;86.15;30.58;;;-1.90;99.90;;;;;;4963112;28;94455;-75
2022/01/25 07:09:03;;;;;;;74.90;29.55;;;-1.90;99.90;;;;;;4995780;28;93640;-75
2022/01/25 07:11:29;;;;;;;96.45;32.88;;;-1.90;99.90;;;;;;5013889;28;95391;-75
2022/01/25 07:13:55;;;;;;;125.68;34.90;;;-2.00;99.90;;;;;;5014756;28;95165;-75
2022/01/25 07:16:21;;;;;;;82.70;30.70;;;-2.00;99.90;;;;;;4997779;28;95508;-75
2022/01/25 07:18:47;;;;;;;83.03;30.90;;;-2.10;99.90;;;;;;4983170;28;94979;-76
2022/01/25 07:21:13;;;;;;;64.22;28.95;;;-2.10;99.90;;;;;;4990408;28;95092;-76
2022/01/25 07:23:38;;;;;;;95.32;30.73;;;-2.10;99.90;;;;;;4976629;28;97521;-75
2022/01/25 07:26:04;;;;;;;100.63;32.22;;;-2.10;99.90;;;;;;4996402;28;94553;-76
2022/01/25 07:28:30;;;;;;;100.53;32.35;;;-2.00;99.90;;;;;;4991958;28;94574;-76
2022/01/25 07:30:55;;;;;;;84.53;31.88;;;-2.00;99.90;;;;;;4992060;28;95302;-75
2022/01/25 07:33:21;;;;;;;119.05;36.35;;;-2.00;99.90;;;;;;4988808;28;96507;-77
2022/01/25 07:35:46;;;;;;;94.70;34.35;;;-2.00;99.90;;;;;;5003358;28;94932;-76
2022/01/25 07:38:15;;;;;;;85.45;34.00;;;-2.10;99.90;;;;;;4996164;28;94502;-77
2022/01/25 07:40:41;;;;;;;91.03;31.10;;;-2.10;99.90;;;;;;4994608;28;95586;-77
2022/01/25 07:43:07;;;;;;;79.57;32.30;;;-2.00;99.90;;;;;;4994460;28;94885;-75
2022/01/25 07:45:35;;;;;;;83.63;34.47;;;-2.00;99.90;;;;;;4994249;28;94562;-78
2022/01/25 07:48:05;;;;;;;78.35;33.45;;;-1.90;99.90;;;;;;4976953;28;94603;-77
2022/01/25 07:50:31;;;;;;;78.78;33.50;;;-1.80;99.90;;;;;;4976454;28;98428;-76
2022/01/25 07:52:57;;;;;;;111.07;47.05;;;-1.70;99.90;;;;;;4994354;28;94445;-78
2022/01/25 07:55:23;;;;;;;85.63;38.42;;;-1.60;99.90;;;;;;5007069;28;94820;-78
2022/01/25 07:57:48;;;;;;;91.28;37.30;;;-1.60;99.90;;;;;;5015197;28;93852;-78
2022/01/25 08:00:14;;;;;;;94.47;38.15;;;-1.50;99.90;;;;;;4996624;28;96264;-78
2022/01/25 08:02:46;;;;;;;84.85;34.45;;;-1.50;99.90;;;;;;4958718;28;96710;-78
2022/01/25 08:05:19;;;;;;;84.60;34.38;;;-1.50;99.90;;;;;;4975935;28;95588;-78
2022/01/25 08:07:45;;;;;;;75.22;34.25;;;-1.40;99.90;;;;;;5013715;28;94586;-79
2022/01/25 08:10:12;;;;;;;80.35;35.03;;;-1.40;99.90;;;;;;4976667;28;96602;-79
2022/01/25 08:12:39;;;;;;;86.43;36.90;;;-1.30;99.90;;;;;;4976069;28;98184;-79
2022/01/25 08:15:09;;;;;;;76.78;34.72;;;-1.30;99.90;;;;;;4974989;28;94650;-78
2022/01/25 08:17:35;;;;;;;82.75;35.78;;;-1.30;99.90;;;;;;4971181;28;94497;-81
2022/01/25 08:20:02;;;;;;;81.03;35.65;;;-1.20;99.90;;;;;;4986311;28;98453;-79
2022/01/25 08:22:27;;;;;;;76.07;35.85;;;-1.20;99.90;;;;;;4995836;28;96750;-81
2022/01/25 08:24:53;;;;;;;76.32;35.83;;;-1.10;99.90;;;;;;5000461;28;94525;-79
2022/01/25 08:27:23;;;;;;;74.05;36.22;;;-1.10;99.90;;;;;;4977796;28;94605;-78
2022/01/25 08:29:49;;;;;;;60.88;31.45;;;-1.00;99.90;;;;;;4956720;28;99947;-78
2022/01/25 08:32:15;;;;;;;67.38;31.42;;;-1.00;99.90;;;;;;4996605;28;97668;-80
2022/01/25 08:34:41;;;;;;;59.55;30.90;;;-0.90;99.90;;;;;;4999626;28;94789;-80
2022/01/25 08:37:07;;;;;;;62.33;31.60;;;-0.90;99.90;;;;;;5016219;28;94521;-79
2022/01/25 08:39:32;;;;;;;57.90;28.33;;;-0.80;99.90;;;;;;4998568;28;96582;-78
2022/01/25 08:41:58;;;;;;;56.60;28.58;;;-0.70;99.90;;;;;;4997424;28;98152;-77
2022/01/25 08:44:24;;;;;;;53.35;27.88;;;-0.60;99.90;;;;;;4997019;28;94494;-77
2022/01/25 08:46:50;;;;;;;51.92;28.05;;;-0.40;99.90;;;;;;4983063;28;93805;-77
2022/01/25 08:49:16;;;;;;;55.33;26.98;;;-0.40;99.90;;;;;;4983905;28;96986;-81
2022/01/25 08:51:42;;;;;;;48.30;25.65;;;-0.30;99.90;;;;;;4998541;28;96267;-77
2022/01/25 08:54:08;;;;;;;47.67;25.05;;;-0.10;99.90;;;;;;5015033;28;95284;-82
2022/01/25 08:56:34;;;;;;;49.35;26.35;;;-0.10;99.90;;;;;;5016040;28;94295;-79
2022/01/25 08:58:59;;;;;;;47.47;25.92;;;0.00;99.90;;;;;;5015167;28;95298;-77
2022/01/25 09:01:26;;;;;;;47.47;25.77;;;0.10;99.90;;;;;;4992290;28;96592;-77
2022/01/25 09:03:54;;;;;;;47.13;26.70;;;0.20;99.90;;;;;;4976995;28;94520;-77
2022/01/25 09:06:20;;;;;;;41.33;24.25;;;0.20;99.90;;;;;;4992827;28;94415;-78
2022/01/25 09:08:46;;;;;;;42.17;25.00;;;0.20;99.90;;;;;;4977293;28;97985;-79
2022/01/25 09:11:12;;;;;;;42.30;25.48;;;0.20;99.90;;;;;;4977477;28;97805;-78
2022/01/25 09:13:38;;;;;;;41.13;24.63;;;0.30;99.90;;;;;;4976972;28;94564;-79
2022/01/25 09:16:04;;;;;;;41.05;23.50;;;0.40;99.90;;;;;;4996810;28;95212;-79
2022/01/25 09:18:31;;;;;;;41.55;25.40;;;0.50;99.90;;;;;;4979932;28;97543;-76
2022/01/25 09:20:57;;;;;;;45.63;25.92;;;0.50;99.90;;;;;;4997972;28;96255;-80
2022/01/25 09:23:23;;;;;;;43.20;25.48;;;0.70;99.90;;;;;;4998493;28;94468;-77
2022/01/25 09:25:50;;;;;;;51.10;27.88;;;0.80;99.90;;;;;;4997538;28;94517;-79
2022/01/25 09:28:16;;;;;;;65.63;38.03;;;1.00;99.90;;;;;;4997109;28;95057;-79
2022/01/25 09:30:43;;;;;;;60.38;36.75;;;1.10;99.90;;;;;;4979740;28;96718;-79
2022/01/25 09:33:09;;;;;;;64.03;37.78;;;1.30;99.90;;;;;;4979393;28;94638;-78
2022/01/25 09:35:35;;;;;;;79.90;46.42;;;1.30;99.90;;;;;;4997200;28;93701;-78
2022/01/25 09:38:00;;;;;;;62.22;32.22;;;1.40;99.90;;;;;;4978994;28;96626;-79
2022/01/25 09:40:26;;;;;;;53.83;28.98;;;1.50;99.90;;;;;;4997040;28;95275;-79
2022/01/25 09:42:55;;;;;;;144.68;66.43;;;1.50;99.90;;;;;;4997038;28;95395;-79
2022/01/25 09:45:22;;;;;;;157.05;73.25;;;1.50;99.90;;;;;;4981239;28;96365;-77
2022/01/25 09:47:48;;;;;;;63.65;32.92;;;1.60;99.90;;;;;;4997833;28;96432;-77
2022/01/25 09:50:15;;;;;;;56.47;29.35;;;1.70;99.90;;;;;;4982299;28;98291;-77
2022/01/25 09:52:44;;;;;;;80.22;41.63;;;1.70;99.90;;;;;;4978600;28;94563;-77
2022/01/25 09:55:17;;;;;;;64.70;31.70;;;1.70;99.90;;;;;;4978745;28;94533;-77
2022/01/25 09:57:43;;;;;;;62.13;30.85;;;1.60;99.90;;;;;;4978380;28;96861;-78
2022/01/25 10:00:13;;;;;;;81.65;39.63;;;1.70;99.90;;;;;;4978706;28;96849;-78
2022/01/25 10:02:48;;;;;;;59.53;30.40;;;1.80;99.90;;;;;;4977878;28;95086;-80
2022/01/25 10:05:30;;;;;;;58.60;29.65;;;2.00;99.90;;;;;;4998736;28;94351;-80
2022/01/25 10:08:02;;;;;;;113.07;60.88;;;1.80;99.90;;;;;;4978675;28;98238;-77
2022/01/25 10:10:30;;;;;;;76.13;41.00;;;1.90;99.90;;;;;;4978721;28;98718;-78
2022/01/25 10:13:38;;;;;;;64.13;30.95;;;1.90;99.90;;;;;;4978739;28;94870;-77
2022/01/25 10:16:09;;;;;;;60.22;31.08;;;2.10;99.90;;;;;;4953901;28;95257;-77
2022/01/25 10:18:37;;;;;;;64.72;32.38;;;2.00;99.90;;;;;;4972941;28;97436;-78
2022/01/25 10:21:03;;;;;;;63.45;31.67;;;2.10;99.90;;;;;;4978009;28;97738;-79
2022/01/25 10:23:31;;;;;;;59.30;31.17;;;2.30;99.90;;;;;;4996028;28;94367;-79
2022/01/25 10:26:00;;;;;;;65.75;33.55;;;2.40;99.90;;;;;;4987030;28;93831;-79
2022/01/25 10:28:30;;;;;;;66.55;34.00;;;2.50;99.90;;;;;;5014832;28;96753;-79
2022/01/25 10:31:06;;;;;;;63.10;33.30;;;2.70;99.90;;;;;;5005726;28;97482;-78
2022/01/25 10:33:38;;;;;;;59.95;32.13;;;2.80;99.90;;;;;;4996116;28;95804;-79
2022/01/25 10:36:16;;;;;;;59.55;31.05;;;2.80;99.90;;;;;;5007718;28;94618;-79
2022/01/25 10:38:45;;;;;;;62.58;33.28;;;2.80;99.90;;;;;;5000498;28;97864;-80
2022/01/25 10:41:13;;;;;;;57.08;30.88;;;2.80;99.90;;;;;;4967721;28;96563;-80
2022/01/25 10:43:41;;;;;;;61.55;31.10;;;2.70;99.90;;;;;;4971586;28;94458;-80
2022/01/25 10:46:23;;;;;;;62.90;33.70;;;2.70;99.90;;;;;;4977056;28;94470;-80
2022/01/25 10:48:52;;;;;;;61.85;31.70;;;2.70;99.90;;;;;;5004714;28;97368;-82
2022/01/25 10:51:21;;;;;;;60.63;31.75;;;2.80;99.90;;;;;;4990337;28;95747;-82
2022/01/25 10:54:07;;;;;;;58.35;30.70;;;2.90;99.90;;;;;;4996793;28;94489;-81
2022/01/25 10:56:35;;;;;;;60.72;32.35;;;2.80;99.90;;;;;;5012111;28;94494;-83
2022/01/25 10:59:03;;;;;;;55.97;30.65;;;2.80;99.90;;;;;;5001278;28;98975;-81
2022/01/25 11:01:33;;;;;;;63.70;31.77;;;2.80;99.90;;;;;;4985478;28;99598;-81
2022/01/25 11:04:16;;;;;;;60.72;30.73;;;2.90;99.90;;;;;;4966049;28;94429;-81
2022/01/25 11:06:42;;;;;;;59.30;31.70;;;3.00;99.90;;;;;;4972445;28;94454;-81
2022/01/25 11:09:10;;;;;;;61.45;31.20;;;2.90;99.90;;;;;;4992473;28;94488;-81
2022/01/25 11:11:41;;;;;;;59.95;30.95;;;3.00;99.90;;;;;;4989982;28;95306;-80
2022/01/25 11:16:53;;;;;;;72.63;35.22;;;3.00;99.90;;;;;;5026662;22;93866;-76
2022/01/25 11:19:21;;;;;;;68.30;36.60;;;2.90;99.90;;;;;;4985365;28;97258;-77
2022/01/25 11:21:48;;;;;;;63.65;34.67;;;2.90;99.90;;;;;;4987653;28;97685;-77
2022/01/25 11:24:14;;;;;;;69.13;34.13;;;2.80;99.90;;;;;;5015046;28;95718;-77
2022/01/25 11:26:42;;;;;;;65.88;32.42;;;2.60;99.90;;;;;;5000488;28;94617;-77
2022/01/25 11:29:07;;;;;;;70.03;35.47;;;2.60;99.90;;;;;;4994831;28;94570;-77
2022/01/25 11:31:37;;;;;;;61.08;31.77;;;2.60;99.90;;;;;;4992733;28;97778;-77
2022/01/25 11:34:05;;;;;;;70.20;34.15;;;2.60;99.90;;;;;;4994979;28;94500;-76
2022/01/25 11:36:53;;;;;;;69.03;33.65;;;2.60;99.90;;;;;;4994723;28;94479;-77
2022/01/25 11:39:24;;;;;;;68.75;35.25;;;2.60;99.90;;;;;;4956429;28;96615;-77
2022/01/25 11:41:51;;;;;;;67.32;33.67;;;2.60;99.90;;;;;;4959017;28;97719;-76
2022/01/25 11:44:22;;;;;;;67.50;34.60;;;2.80;99.90;;;;;;4982556;28;94510;-76
2022/01/25 11:46:56;;;;;;;70.50;33.20;;;2.70;99.90;;;;;;4994658;28;94594;-76
2022/01/25 11:49:22;;;;;;;74.95;35.40;;;2.70;99.90;;;;;;4994105;28;97231;-76
2022/01/25 11:52:11;;;;;;;76.47;36.55;;;2.70;99.90;;;;;;5004525;28;97433;-76
2022/01/25 11:54:41;;;;;;;71.18;35.13;;;2.60;99.90;;;;;;5014925;28;94332;-76
2022/01/25 11:57:18;;;;;;;75.40;37.95;;;2.70;99.90;;;;;;4990993;28;94584;-75
2022/01/25 11:59:54;;;;;;;84.90;44.00;;;2.70;99.90;;;;;;4994395;28;96452;-75
2022/01/25 12:02:43;;;;;;;70.55;35.13;;;2.80;99.90;;;;;;4994576;28;95295;-76
2022/01/25 12:05:26;;;;;;;68.57;33.85;;;2.80;99.90;;;;;;4983476;28;94629;-76
2022/01/25 12:08:37;;;;;;;66.47;33.42;;;2.90;99.90;;;;;;5014379;28;93894;-76
2022/01/25 12:11:24;;;;;;;68.25;31.92;;;2.70;99.90;;;;;;4985595;28;95063;-76
2022/01/25 12:14:24;;;;;;;62.70;31.77;;;2.60;99.90;;;;;;4985697;28;97801;-76
2022/01/25 12:17:11;;;;;;;66.78;31.60;;;2.60;99.90;;;;;;4993553;28;95388;-77
2022/01/25 12:19:46;;;;;;;65.28;32.70;;;2.70;99.90;;;;;;4989410;28;94610;-77
2022/01/25 12:22:33;;;;;;;63.67;31.42;;;2.80;99.90;;;;;;4985958;28;97240;-76
2022/01/25 12:25:17;;;;;;;65.32;31.77;;;2.80;99.90;;;;;;4993717;28;94684;-77
2022/01/25 12:27:59;;;;;;;58.10;29.48;;;2.90;99.90;;;;;;4976340;28;94637;-77
2022/01/25 12:30:31;;;;;;;57.63;28.50;;;2.80;99.90;;;;;;4976354;28;94530;-77
2022/01/25 12:33:08;;;;;;;59.28;29.63;;;2.70;99.90;;;;;;4971392;28;97371;-77
2022/01/25 12:35:34;;;;;;;60.78;30.52;;;2.70;99.90;;;;;;4998433;28;95334;-77
2022/01/25 12:38:03;;;;;;;60.85;30.60;;;2.80;99.90;;;;;;4974617;28;94470;-77
2022/01/25 12:40:32;;;;;;;55.78;28.95;;;2.70;99.90;;;;;;4976110;28;94607;-77
2022/01/25 12:43:02;;;;;;;59.92;30.17;;;2.60;99.90;;;;;;4993053;28;96059;-77
2022/01/25 12:45:31;;;;;;;61.88;31.45;;;2.40;99.90;;;;;;4975886;28;97873;-77
2022/01/25 12:48:13;;;;;;;64.13;30.33;;;2.40;99.90;;;;;;4976511;28;94423;-77
2022/01/25 12:50:41;;;;;;;67.25;32.40;;;2.30;99.90;;;;;;4978120;28;94552;-76
2022/01/25 12:53:09;;;;;;;67.55;32.97;;;2.40;99.90;;;;;;4979790;28;98400;-77
2022/01/25 12:55:38;;;;;;;67.03;32.35;;;2.50;99.90;;;;;;4997919;28;94608;-76
2022/01/25 12:58:05;;;;;;;70.40;33.47;;;2.40;99.90;;;;;;4996375;28;94522;-77
2022/01/25 13:00:39;;;;;;;63.17;32.17;;;2.40;99.90;;;;;;4996860;28;93672;-76
2022/01/25 13:03:15;;;;;;;66.00;32.67;;;2.30;99.90;;;;;;4995533;28;97490;-76
2022/01/25 13:05:53;;;;;;;65.05;32.58;;;2.40;99.90;;;;;;4994862;28;95215;-77
2022/01/25 13:08:28;;;;;;;71.45;33.75;;;2.40;99.90;;;;;;4989270;28;95600;-77
2022/01/25 13:11:18;;;;;;;71.28;33.50;;;2.40;99.90;;;;;;4978703;28;94636;-77
2022/01/25 13:13:57;;;;;;;74.55;34.33;;;2.30;99.90;;;;;;4975415;28;97227;-77
2022/01/25 13:16:38;;;;;;;68.38;32.63;;;2.30;99.90;;;;;;4994030;28;95350;-76
2022/01/25 13:19:03;;;;;;;74.28;33.78;;;2.30;99.90;;;;;;4995554;28;94533;-76
2022/01/25 13:21:40;;;;;;;70.75;32.92;;;2.30;99.90;;;;;;4990135;28;94531;-76
2022/01/25 13:24:16;;;;;;;75.93;34.08;;;2.30;99.90;;;;;;4996712;28;95465;-76
2022/01/25 13:26:55;;;;;;;70.95;32.13;;;2.20;99.90;;;;;;4997417;28;93911;-76
2022/01/25 13:32:16;;;;;;;71.07;34.25;;;2.20;99.90;;;;;;4989054;28;94490;-75
2022/01/25 13:34:43;;;;;;;71.72;34.10;;;2.10;99.90;;;;;;4979184;28;95481;-75
2022/01/25 13:37:21;;;;;;;72.75;35.45;;;2.10;99.90;;;;;;4986903;28;95901;-75
2022/01/25 13:40:03;;;;;;;71.20;33.33;;;2.20;99.90;;;;;;4996667;28;94446;-76
2022/01/25 13:43:30;;;;;;;71.97;33.72;;;2.20;99.90;;;;;;4995809;28;94582;-76
2022/01/25 13:48:09;;;;;;;78.65;35.72;;;2.20;99.90;;;;;;4997902;28;94455;-76
2022/01/25 13:50:37;;;;;;;75.22;37.70;;;2.30;99.90;;;;;;4984641;28;94474;-76
2022/01/25 13:53:04;;;;;;;75.57;38.00;;;2.30;99.90;;;;;;4996769;28;93814;-76
2022/01/25 13:55:30;;;;;;;74.72;36.67;;;2.30;99.90;;;;;;4996089;28;95097;-76
2022/01/25 13:57:56;;;;;;;59.63;30.33;;;2.50;99.90;;;;;;4996498;28;95260;-76
2022/01/25 14:00:23;;;;;;;64.55;31.42;;;2.50;99.90;;;;;;4996864;28;95684;-75
2022/01/25 14:02:51;;;;;;;66.90;30.70;;;2.60;99.90;;;;;;4995066;28;94523;-76
2022/01/25 14:05:16;;;;;;;60.33;31.00;;;2.40;99.90;;;;;;4986204;28;98592;-75
2022/01/25 14:07:45;;;;;;;61.20;30.50;;;2.40;99.90;;;;;;4996228;28;94393;-76
2022/01/25 14:10:18;;;;;;;60.50;30.08;;;2.40;99.90;;;;;;4995275;28;94698;-75
2022/01/25 14:23:48;;;;;;;69.43;31.25;;;2.50;99.90;;;;;;4988173;28;94856;-75
2022/01/25 14:26:15;;;;;;;67.53;32.10;;;2.40;99.90;;;;;;4994237;28;95600;-75
2022/01/25 14:28:53;;;;;;;65.50;32.83;;;2.40;99.90;;;;;;4993776;28;95191;-76
2022/01/25 14:31:29;;;;;;;67.57;33.72;;;2.30;99.90;;;;;;4988361;28;94453;-76
2022/01/25 14:33:57;;;;;;;68.32;33.10;;;2.30;99.90;;;;;;4999499;28;94364;-76
2022/01/25 14:36:24;;;;;;;66.85;33.05;;;2.40;99.90;;;;;;4994215;28;98340;-77
2022/01/25 14:38:54;;;;;;;242.80;102.97;;;2.40;99.90;;;;;;4995568;28;96751;-79
2022/01/25 14:41:25;;;;;;;162.63;72.00;;;2.30;99.90;;;;;;4988872;28;95196;-79
2022/01/25 14:43:54;;;;;;;80.70;38.63;;;2.30;99.90;;;;;;4990385;28;93773;-80
2022/01/25 14:46:32;;;;;;;93.32;40.67;;;2.30;99.90;;;;;;4982665;28;98050;-81
2022/01/25 14:49:29;;;;;;;107.05;49.67;;;2.20;99.90;;;;;;4979015;28;96332;-79
2022/01/25 14:51:57;;;;;;;87.30;40.13;;;2.30;99.90;;;;;;4983740;28;95832;-79
2022/01/25 14:54:29;;;;;;;235.25;87.63;;;2.20;99.90;;;;;;4990094;28;94533;-77
2022/01/25 14:56:58;;;;;;;162.93;71.60;;;2.30;99.90;;;;;;4999809;28;94837;-77
2022/01/25 14:59:31;;;;;;;96.35;44.88;;;2.30;99.90;;;;;;4989975;28;96775;-79
2022/01/25 15:02:02;;;;;;;159.35;70.10;;;2.30;99.90;;;;;;4994581;28;94548;-81
2022/01/25 15:04:37;;;;;;;90.30;41.10;;;2.30;99.90;;;;;;5007615;28;95379;-78
2022/01/25 15:07:04;;;;;;;106.15;48.10;;;2.30;99.90;;;;;;4983598;28;97089;-76
2022/01/25 15:09:30;;;;;;;105.40;48.08;;;2.30;99.90;;;;;;4991927;28;98342;-76
2022/01/25 15:11:55;;;;;;;85.97;40.25;;;2.30;99.90;;;;;;5007780;28;94518;-76
2022/01/25 15:14:22;;;;;;;71.97;35.03;;;2.30;99.90;;;;;;5003485;28;94573;-78
2022/01/25 15:16:49;;;;;;;84.72;38.40;;;2.20;99.90;;;;;;4995439;28;98908;-77
2022/01/25 15:19:20;;;;;;;87.18;39.35;;;2.20;99.90;;;;;;4999847;28;95190;-78
2022/01/25 15:21:48;;;;;;;70.65;33.88;;;2.10;99.90;;;;;;4958744;28;94570;-78
2022/01/25 15:24:15;;;;;;;66.40;32.45;;;2.10;99.90;;;;;;4978177;28;94486;-77
2022/01/25 15:26:42;;;;;;;69.05;33.00;;;2.00;99.90;;;;;;4958071;28;96430;-77
2022/01/25 15:29:09;;;;;;;74.80;35.65;;;1.90;99.90;;;;;;4976386;28;98200;-79
2022/01/25 15:31:35;;;;;;;76.03;35.65;;;1.90;99.90;;;;;;4996425;28;94558;-77
2022/01/25 15:34:00;;;;;;;77.63;36.45;;;1.90;99.90;;;;;;4982820;28;94146;-76
2022/01/25 15:36:26;;;;;;;76.15;35.42;;;1.90;99.90;;;;;;4995383;28;95204;-78
2022/01/25 15:38:52;;;;;;;84.13;37.65;;;1.80;99.90;;;;;;4994201;28;96885;-77
2022/01/25 15:41:22;;;;;;;84.32;36.97;;;1.80;99.90;;;;;;4994292;28;95446;-76
2022/01/25 15:43:58;;;;;;;78.82;36.05;;;1.80;99.90;;;;;;4995256;28;94781;-76
2022/01/25 15:48:54;;;;;;;93.18;44.78;;;1.90;99.90;;;;;;5003390;28;95331;-76
2022/01/25 15:51:22;;;;;;;73.05;34.95;;;1.90;99.90;;;;;;4996389;28;94395;-76
2022/01/25 15:53:48;;;;;;;96.75;43.53;;;1.80;99.90;;;;;;4995783;28;94478;-76
2022/01/25 15:56:15;;;;;;;98.03;44.97;;;1.80;99.90;;;;;;4995275;28;95126;-76
2022/01/25 15:58:41;;;;;;;97.78;44.60;;;1.80;99.90;;;;;;4977882;28;96207;-76
